Time;durP1;ratioP1;P1;durP2;ratioP2;P2;SDS_P1;SDS_P2;PMS_P1;PMS_P2;Temp;Humidity;BMP_temperature;BMP_pressure;BME280_temperature;BME280_humidity;BME280_pressure;Samples;Min_cycle;Max_cycle;Signal;HPM_P1;HPM_P2
2022/04/28 05:02:44;;;;;;;11.18;8.00;;;4.60;99.90;;;;;;5012631;28;19929;-86
2022/04/28 05:05:11;;;;;;;13.52;7.68;;;4.70;99.90;;;;;;5011229;28;20041;-86
2022/04/28 05:07:38;;;;;;;11.75;8.15;;;4.80;99.90;;;;;;5007740;28;20049;-86
2022/04/28 05:10:07;;;;;;;12.27;7.97;;;4.90;99.90;;;;;;5017013;28;20456;-87
2022/04/28 05:12:34;;;;;;;10.43;7.43;;;4.90;99.90;;;;;;5018840;28;20042;-87
2022/04/28 05:15:01;;;;;;;17.40;8.35;;;4.90;99.90;;;;;;5022849;28;20121;-88
2022/04/28 05:17:28;;;;;;;11.60;7.50;;;4.90;99.90;;;;;;5015779;28;20041;-86
2022/04/28 05:19:58;;;;;;;11.35;7.93;;;5.10;99.90;;;;;;5006468;28;20499;-88
2022/04/28 05:22:25;;;;;;;12.13;7.93;;;5.00;99.90;;;;;;5014631;28;20046;-89
2022/04/28 05:24:52;;;;;;;11.90;8.10;;;5.00;99.90;;;;;;5009968;28;20495;-88
2022/04/28 05:27:19;;;;;;;12.15;8.05;;;5.10;99.90;;;;;;5018757;28;20106;-87
2022/04/28 05:29:46;;;;;;;12.02;7.85;;;5.20;99.90;;;;;;5022745;28;20054;-83
2022/04/28 05:32:13;;;;;;;12.07;7.95;;;5.20;99.90;;;;;;5018764;28;20105;-85
2022/04/28 05:34:40;;;;;;;11.55;8.45;;;5.20;99.90;;;;;;5019478;28;20072;-89
2022/04/28 05:37:11;;;;;;;11.05;7.78;;;5.30;99.90;;;;;;5013043;28;20487;-87
2022/04/28 05:39:39;;;;;;;12.20;8.30;;;5.20;99.90;;;;;;5006725;28;20046;-86
2022/04/28 05:42:07;;;;;;;10.93;7.85;;;5.20;99.90;;;;;;5018911;28;20482;-84
2022/04/28 05:47:20;;;;;;;11.93;7.97;;;5.40;99.90;;;;;;5020677;28;20104;-90
2022/04/28 05:49:47;;;;;;;12.57;8.55;;;5.50;99.90;;;;;;5010869;28;20133;-91
2022/04/28 05:52:16;;;;;;;12.75;8.10;;;5.30;99.90;;;;;;5003651;28;20051;-87
2022/04/28 05:54:43;;;;;;;12.38;8.50;;;5.30;99.90;;;;;;5001659;28;20088;-90
2022/04/28 05:57:11;;;;;;;12.60;8.43;;;5.40;99.90;;;;;;5014984;28;20114;-86
2022/04/28 05:59:39;;;;;;;12.52;7.97;;;5.50;99.90;;;;;;5011413;28;20142;-88
2022/04/28 06:02:06;;;;;;;12.77;8.38;;;5.60;99.90;;;;;;5010601;28;20064;-86
2022/04/28 06:04:33;;;;;;;12.95;8.65;;;5.60;99.90;;;;;;4999174;28;20052;-87
2022/04/28 06:07:00;;;;;;;12.93;8.73;;;5.60;99.90;;;;;;4999176;28;20057;-88
2022/04/28 06:09:29;;;;;;;11.23;8.27;;;5.80;99.90;;;;;;4996352;28;20042;-87
2022/04/28 06:11:56;;;;;;;12.45;8.73;;;5.80;99.90;;;;;;5010716;28;20554;-87
2022/04/28 06:14:23;;;;;;;14.40;8.27;;;5.90;99.90;;;;;;5013517;28;20503;-86
2022/04/28 06:16:58;;;;;;;12.10;8.80;;;5.90;99.90;;;;;;5012148;28;20050;-86
2022/04/28 06:19:25;;;;;;;11.93;8.77;;;6.00;99.90;;;;;;5008207;28;20046;-88
2022/04/28 06:21:53;;;;;;;12.05;8.73;;;6.10;99.90;;;;;;5008089;28;20051;-89
2022/04/28 06:24:20;;;;;;;11.98;8.73;;;6.30;99.90;;;;;;5002974;28;20554;-86
2022/04/28 06:26:48;;;;;;;13.07;9.55;;;6.40;99.90;;;;;;5007387;28;20096;-86
2022/04/28 06:29:16;;;;;;;11.23;8.40;;;6.40;99.90;;;;;;5010416;28;20050;-85
2022/04/28 06:31:43;;;;;;;11.38;8.05;;;6.50;99.90;;;;;;5008433;28;20054;-87
2022/04/28 06:34:10;;;;;;;12.52;8.55;;;6.60;99.90;;;;;;5008664;28;20386;-87
2022/04/28 06:36:37;;;;;;;13.73;9.18;;;6.70;99.90;;;;;;4995654;28;20125;-89
2022/04/28 06:39:05;;;;;;;12.35;8.80;;;6.80;99.90;;;;;;5006783;28;20058;-83
2022/04/28 06:41:34;;;;;;;12.48;8.95;;;6.90;99.90;;;;;;5010353;28;20045;-83
2022/04/28 06:44:02;;;;;;;12.02;8.25;;;7.00;99.90;;;;;;5011731;28;20058;-82
2022/04/28 06:46:29;;;;;;;11.73;8.65;;;7.10;99.90;;;;;;5011464;28;20073;-82
2022/04/28 06:48:56;;;;;;;11.93;8.32;;;7.20;99.90;;;;;;5011658;28;20076;-81
2022/04/28 06:51:23;;;;;;;12.70;8.93;;;7.30;99.90;;;;;;5009132;28;20085;-84
2022/04/28 06:53:51;;;;;;;12.65;8.93;;;7.40;99.90;;;;;;5011591;28;20561;-82
2022/04/28 06:56:18;;;;;;;14.35;9.80;;;7.50;99.90;;;;;;5008773;28;20091;-85
2022/04/28 06:58:45;;;;;;;13.75;9.63;;;7.60;99.90;;;;;;5011123;28;20085;-83
2022/04/28 07:01:13;;;;;;;14.07;9.82;;;7.70;99.90;;;;;;5011032;28;20132;-85
2022/04/28 07:03:41;;;;;;;15.40;9.85;;;7.90;99.90;;;;;;5001954;28;20055;-84
2022/04/28 07:06:08;;;;;;;15.35;9.68;;;8.00;99.90;;;;;;5009818;28;20054;-85
2022/04/28 07:08:35;;;;;;;14.10;10.05;;;8.10;99.90;;;;;;5008001;28;20112;-81
2022/04/28 07:11:02;;;;;;;17.85;11.07;;;8.20;99.90;;;;;;5010492;28;20152;-81
2022/04/28 07:13:29;;;;;;;15.77;10.70;;;8.30;99.90;;;;;;5010469;28;20081;-88
2022/04/28 07:15:56;;;;;;;14.50;10.10;;;8.40;99.90;;;;;;5008745;28;20050;-81
2022/04/28 07:18:25;;;;;;;14.55;10.32;;;8.50;99.90;;;;;;5009235;28;20083;-81
2022/04/28 07:20:52;;;;;;;14.02;10.32;;;8.50;99.90;;;;;;5007821;28;20103;-80
2022/04/28 07:23:19;;;;;;;15.88;10.90;;;8.70;99.90;;;;;;5009272;28;20586;-80
2022/04/28 07:25:46;;;;;;;14.98;10.55;;;8.70;99.90;;;;;;5011197;28;20528;-85
2022/04/28 07:28:14;;;;;;;16.08;10.30;;;8.90;99.90;;;;;;5003199;28;20132;-83
2022/04/28 07:30:41;;;;;;;15.02;10.63;;;8.90;99.90;;;;;;5011139;28;20084;-83
2022/04/28 07:33:11;;;;;;;14.05;9.75;;;9.10;99.90;;;;;;5009554;28;20046;-85
2022/04/28 07:35:39;;;;;;;14.38;8.95;;;9.10;99.90;;;;;;5006969;28;20137;-86
2022/04/28 07:38:08;;;;;;;14.10;8.52;;;9.20;99.90;;;;;;5010979;28;20082;-86
2022/04/28 07:40:36;;;;;;;13.68;9.35;;;9.40;99.90;;;;;;5010894;28;20122;-85
2022/04/28 07:43:03;;;;;;;15.00;10.65;;;9.60;99.90;;;;;;5005241;28;20128;-79
2022/04/28 07:45:31;;;;;;;12.35;9.40;;;9.70;99.90;;;;;;5009885;28;20117;-79
2022/04/28 07:47:58;;;;;;;11.88;8.85;;;9.80;99.90;;;;;;5010700;28;20056;-80
2022/04/28 07:50:27;;;;;;;11.73;8.80;;;9.90;99.90;;;;;;5023981;28;20056;-79
2022/04/28 07:52:56;;;;;;;11.15;7.82;;;10.00;99.90;;;;;;5032835;28;20179;-80
2022/04/28 07:55:23;;;;;;;9.50;6.95;;;10.20;99.90;;;;;;5013862;28;20049;-79
2022/04/28 07:57:50;;;;;;;10.13;6.85;;;10.40;99.90;;;;;;5012937;28;20045;-78
2022/04/28 08:00:18;;;;;;;10.43;7.32;;;10.50;99.90;;;;;;5012732;28;20406;-82
2022/04/28 08:02:47;;;;;;;10.30;6.13;;;10.50;99.90;;;;;;5013230;28;20202;-80
2022/04/28 08:05:15;;;;;;;8.32;5.88;;;10.80;99.90;;;;;;5012960;28;20049;-78
2022/04/28 08:07:44;;;;;;;7.30;4.88;;;10.80;99.90;;;;;;4993096;28;20090;-79
2022/04/28 08:10:13;;;;;;;8.30;4.70;;;10.90;99.90;;;;;;4992937;28;20504;-78
2022/04/28 08:12:40;;;;;;;7.15;4.45;;;11.10;99.90;;;;;;5002680;28;20058;-80
2022/04/28 08:15:08;;;;;;;7.63;4.68;;;11.20;99.90;;;;;;5009122;28;20054;-81
2022/04/28 08:17:35;;;;;;;7.95;4.57;;;11.10;99.90;;;;;;5011821;28;20049;-81
2022/04/28 08:20:03;;;;;;;7.30;5.00;;;11.20;99.90;;;;;;5013617;28;20046;-81
2022/04/28 08:22:30;;;;;;;8.55;5.35;;;11.40;99.90;;;;;;5012124;28;20050;-81
2022/04/28 08:24:57;;;;;;;7.32;4.90;;;11.50;99.90;;;;;;5013555;28;20068;-79
2022/04/28 08:27:26;;;;;;;8.52;5.03;;;11.50;99.90;;;;;;5012846;28;20546;-84
2022/04/28 08:29:53;;;;;;;7.63;4.88;;;11.60;99.90;;;;;;5015554;28;20056;-86
2022/04/28 08:32:20;;;;;;;8.30;5.20;;;11.70;99.50;;;;;;5014581;28;20125;-85
2022/04/28 08:34:47;;;;;;;5.97;3.88;;;11.80;99.40;;;;;;5012997;28;20048;-80
2022/04/28 08:37:14;;;;;;;8.23;4.30;;;12.00;99.10;;;;;;5012854;28;20286;-81
2022/04/28 08:39:41;;;;;;;6.32;3.90;;;12.00;99.10;;;;;;5012291;28;20152;-82
2022/04/28 08:42:13;;;;;;;6.18;4.03;;;12.10;98.20;;;;;;5013085;28;20046;-82
2022/04/28 08:44:44;;;;;;;5.88;3.72;;;12.20;98.40;;;;;;5011888;28;20057;-81
2022/04/28 08:47:12;;;;;;;6.63;3.70;;;12.30;97.20;;;;;;5013261;28;20511;-83
2022/04/28 08:49:42;;;;;;;5.18;3.20;;;12.60;95.40;;;;;;5013911;28;20118;-83
2022/04/28 08:52:12;;;;;;;6.13;3.70;;;12.80;95.80;;;;;;5013364;28;20050;-82
2022/04/28 08:54:40;;;;;;;6.65;3.42;;;12.70;94.70;;;;;;5011896;28;20054;-84
2022/04/28 08:57:07;;;;;;;5.40;2.72;;;12.90;91.20;;;;;;5012247;28;20140;-81
2022/04/28 08:59:34;;;;;;;4.70;2.85;;;12.90;88.80;;;;;;5012068;28;20513;-80
2022/04/28 09:02:03;;;;;;;3.90;2.40;;;13.00;83.20;;;;;;5012507;28;20050;-82
2022/04/28 09:04:31;;;;;;;4.18;2.47;;;13.20;80.80;;;;;;5011437;28;20052;-80
2022/04/28 09:07:00;;;;;;;5.05;2.50;;;13.20;78.20;;;;;;5012710;28;20063;-80
2022/04/28 09:09:28;;;;;;;3.88;2.20;;;13.30;76.30;;;;;;5010751;28;20108;-81
2022/04/28 09:12:00;;;;;;;4.38;2.40;;;13.40;75.40;;;;;;5012779;28;20046;-83
2022/04/28 09:14:27;;;;;;;4.63;2.50;;;13.50;74.30;;;;;;5012496;28;20046;-83
2022/04/28 09:16:58;;;;;;;4.47;2.40;;;13.60;72.20;;;;;;5013049;28;20141;-80
2022/04/28 09:19:30;;;;;;;4.90;2.65;;;13.70;73.40;;;;;;5011703;28;20141;-79
2022/04/28 09:21:59;;;;;;;4.63;2.60;;;13.80;67.80;;;;;;5013902;28;20057;-82
2022/04/28 09:24:28;;;;;;;4.28;2.08;;;13.90;69.10;;;;;;5016118;28;20046;-82
2022/04/28 09:26:56;;;;;;;5.65;2.40;;;13.90;67.60;;;;;;4995186;28;20054;-83
2022/04/28 09:29:27;;;;;;;4.45;2.55;;;14.00;69.70;;;;;;4995000;28;20414;-81
2022/04/28 09:31:54;;;;;;;4.03;2.45;;;14.20;65.10;;;;;;5008283;28;20056;-81
2022/04/28 09:34:24;;;;;;;4.70;2.60;;;14.00;65.60;;;;;;5031913;28;20049;-83
2022/04/28 09:36:56;;;;;;;4.10;2.33;;;13.90;63.40;;;;;;5026219;28;20141;-80
2022/04/28 09:42:31;;;;;;;4.35;2.30;;;14.30;64.70;;;;;;5012332;28;20060;-81
2022/04/28 09:45:00;;;;;;;5.13;2.70;;;14.40;62.30;;;;;;5012344;28;20054;-80
2022/04/28 09:47:30;;;;;;;5.68;2.42;;;14.40;60.60;;;;;;5012174;28;20403;-79
2022/04/28 09:49:59;;;;;;;3.95;2.30;;;14.40;62.70;;;;;;4993499;28;20063;-77
2022/04/28 09:52:32;;;;;;;3.90;2.28;;;14.50;62.70;;;;;;4973898;28;20050;-79
2022/04/28 09:55:03;;;;;;;4.40;2.30;;;14.60;64.40;;;;;;4977623;28;20400;-80
2022/04/28 09:57:31;;;;;;;3.85;1.95;;;14.60;61.70;;;;;;4974649;28;20042;-79
2022/04/28 10:00:00;;;;;;;4.50;2.30;;;14.70;61.90;;;;;;4972745;28;20058;-79
2022/04/28 10:02:28;;;;;;;3.70;2.38;;;14.80;63.50;;;;;;4979769;28;20054;-80
2022/04/28 10:04:56;;;;;;;4.55;2.38;;;14.90;62.80;;;;;;4973995;28;20050;-78
2022/04/28 10:07:25;;;;;;;4.72;2.30;;;14.90;62.60;;;;;;4974464;28;20051;-79
2022/04/28 10:09:54;;;;;;;4.20;2.40;;;14.90;62.60;;;;;;4975411;28;20146;-80
2022/04/28 10:12:22;;;;;;;5.13;3.15;;;14.90;62.00;;;;;;4979769;28;20489;-79
2022/04/28 10:14:50;;;;;;;4.95;2.63;;;15.00;61.20;;;;;;4972111;28;20137;-79
2022/04/28 10:17:26;;;;;;;4.53;2.30;;;14.90;60.50;;;;;;4973161;28;20141;-80
2022/04/28 10:19:57;;;;;;;3.78;2.08;;;15.00;61.50;;;;;;4975697;28;20051;-80
2022/04/28 10:22:30;;;;;;;4.22;2.50;;;15.00;64.80;;;;;;4977758;28;20053;-77
2022/04/28 10:33:21;;;;;;;3.50;2.00;;;15.10;62.20;;;;;;4983758;28;20080;-81
2022/04/28 10:35:55;;;;;;;4.05;2.33;;;15.30;61.50;;;;;;4988139;28;20399;-79
2022/04/28 10:38:24;;;;;;;4.70;2.90;;;15.40;61.10;;;;;;4986156;28;20057;-79
2022/04/28 10:41:04;;;;;;;3.72;2.10;;;15.40;61.40;;;;;;4987861;28;20086;-78
2022/04/28 10:43:39;;;;;;;4.35;2.40;;;15.40;61.30;;;;;;4984035;28;20057;-78
2022/04/28 10:46:31;;;;;;;4.07;2.10;;;15.40;61.00;;;;;;4978975;28;20058;-79
2022/04/28 10:49:02;;;;;;;4.47;2.35;;;15.40;61.10;;;;;;4977791;28;20056;-78
2022/04/28 10:51:32;;;;;;;4.55;2.30;;;15.30;60.90;;;;;;4973125;28;20062;-80
2022/04/28 10:54:14;;;;;;;4.05;2.20;;;15.20;59.90;;;;;;4981478;28;20055;-79
2022/04/28 10:57:00;;;;;;;3.72;1.90;;;15.30;58.60;;;;;;4976271;28;20065;-80
2022/04/28 10:59:34;;;;;;;4.70;2.58;;;15.50;59.70;;;;;;4978722;28;20530;-78
2022/04/28 11:02:49;;;;;;;4.65;2.30;;;15.90;61.00;;;;;;4980606;28;20531;-80
2022/04/28 11:05:43;;;;;;;3.30;2.00;;;15.90;61.60;;;;;;4985559;28;20464;-79
2022/04/28 11:08:34;;;;;;;4.07;2.20;;;15.80;58.60;;;;;;4970262;28;20147;-80
2022/04/28 11:11:11;;;;;;;3.63;2.10;;;15.90;60.80;;;;;;4978621;28;20137;-81
2022/04/28 11:13:51;;;;;;;4.25;2.33;;;15.80;59.30;;;;;;4975884;28;20054;-80
2022/04/28 11:16:19;;;;;;;4.47;2.10;;;15.90;60.20;;;;;;4973440;28;20046;-80
2022/04/28 11:18:46;;;;;;;4.72;2.50;;;16.10;59.70;;;;;;4976306;28;20599;-80
2022/04/28 11:21:14;;;;;;;4.25;2.25;;;16.20;59.90;;;;;;4973478;28;20133;-81
2022/04/28 11:23:45;;;;;;;5.75;2.47;;;16.00;59.60;;;;;;4972075;28;20046;-78
2022/04/28 11:26:13;;;;;;;3.20;1.80;;;16.00;59.80;;;;;;4971364;28;20047;-80
2022/04/28 11:28:42;;;;;;;4.78;2.30;;;16.10;60.00;;;;;;4983352;28;20053;-81
2022/04/28 11:31:13;;;;;;;5.28;2.40;;;16.00;56.90;;;;;;4985480;28;20054;-78
2022/04/28 11:33:45;;;;;;;5.20;2.75;;;16.10;60.00;;;;;;4973552;28;20057;-80
2022/04/28 11:36:21;;;;;;;4.55;2.38;;;16.30;59.70;;;;;;4975291;28;20503;-80
2022/04/28 11:38:52;;;;;;;4.57;2.17;;;16.30;56.90;;;;;;4979153;28;20059;-79
2022/04/28 11:41:26;;;;;;;3.20;1.80;;;16.20;56.40;;;;;;4974593;28;20072;-79
2022/04/28 11:43:55;;;;;;;3.13;1.80;;;16.30;57.00;;;;;;4976970;28;20066;-79
2022/04/28 11:46:22;;;;;;;4.25;2.28;;;16.30;60.20;;;;;;4975031;28;20153;-77
2022/04/28 11:48:53;;;;;;;5.07;2.30;;;16.50;58.10;;;;;;4977793;28;20057;-80
2022/04/28 11:51:24;;;;;;;6.60;2.10;;;16.60;59.50;;;;;;4984760;28;20118;-81
2022/04/28 11:53:52;;;;;;;4.45;2.20;;;16.80;59.30;;;;;;4985570;28;20051;-78
2022/04/28 11:56:22;;;;;;;6.45;2.33;;;16.90;56.50;;;;;;4980333;28;20043;-79
2022/04/28 11:58:51;;;;;;;3.80;2.22;;;16.80;55.70;;;;;;4979377;28;20154;-79
2022/04/28 12:01:22;;;;;;;4.40;2.38;;;16.90;57.60;;;;;;4976831;28;20058;-80
2022/04/28 12:03:52;;;;;;;4.07;1.90;;;16.80;54.60;;;;;;4984556;28;20064;-78
2022/04/28 12:06:20;;;;;;;6.05;2.30;;;17.00;56.60;;;;;;4983534;28;20061;-79
2022/04/28 12:08:53;;;;;;;6.05;2.35;;;17.10;54.00;;;;;;4985356;28;20046;-76
2022/04/28 12:14:25;;;;;;;5.35;2.30;;;17.10;55.60;;;;;;4974983;28;20821;-80
2022/04/28 12:19:51;;;;;;;3.40;2.00;;;17.50;55.90;;;;;;4985831;28;20625;-77
2022/04/28 12:22:31;;;;;;;3.65;2.00;;;17.50;55.70;;;;;;4980917;28;20500;-76
2022/04/28 12:25:09;;;;;;;4.10;2.00;;;17.50;55.20;;;;;;4974131;28;20752;-79
2022/04/28 12:27:44;;;;;;;3.58;2.13;;;17.60;56.90;;;;;;4981457;28;20057;-78
2022/04/28 12:30:13;;;;;;;;;;;17.70;55.20;;;;;;4958809;28;20046;-80
2022/04/28 12:32:51;;;;;;;5.20;2.13;;;17.90;56.30;;;;;;4992855;28;19921;-79
2022/04/28 12:35:28;;;;;;;3.33;1.80;;;18.00;54.90;;;;;;4988548;28;20117;-78
2022/04/28 12:38:02;;;;;;;3.95;1.90;;;18.10;54.20;;;;;;4984630;28;20488;-79
2022/04/28 12:40:39;;;;;;;4.65;2.10;;;18.10;52.20;;;;;;4974788;28;20051;-79
2022/04/28 12:43:06;;;;;;;4.63;2.10;;;18.40;54.90;;;;;;4974746;28;20648;-79
2022/04/28 12:45:50;;;;;;;3.13;1.98;;;18.60;54.60;;;;;;4984098;28;20051;-79
2022/04/28 12:48:28;;;;;;;4.03;2.40;;;18.80;55.70;;;;;;4975275;28;20062;-80
2022/04/28 12:51:16;;;;;;;3.88;2.20;;;18.60;51.90;;;;;;4982018;28;20052;-78
2022/04/28 12:53:45;;;;;;;7.25;2.60;;;18.50;52.20;;;;;;4980107;28;20073;-79
2022/04/28 12:56:14;;;;;;;3.60;2.00;;;18.80;53.40;;;;;;4979869;28;20053;-79
2022/04/28 12:58:45;;;;;;;4.25;2.45;;;18.90;51.90;;;;;;4973418;28;20166;-80
2022/04/28 13:01:17;;;;;;;3.72;2.00;;;19.00;52.10;;;;;;4979631;28;20477;-77
2022/04/28 13:03:55;;;;;;;4.10;2.17;;;19.10;52.70;;;;;;4973572;28;20050;-79
2022/04/28 13:06:24;;;;;;;4.00;2.30;;;19.00;53.20;;;;;;4981325;28;20058;-80
2022/04/28 13:08:52;;;;;;;3.47;1.80;;;19.10;53.60;;;;;;4983279;28;20054;-77
2022/04/28 13:11:22;;;;;;;3.45;1.70;;;19.40;53.70;;;;;;4985811;28;20070;-79
2022/04/28 13:13:50;;;;;;;3.15;1.70;;;19.50;52.70;;;;;;4979859;28;20057;-78
2022/04/28 13:16:18;;;;;;;3.63;1.98;;;19.70;52.90;;;;;;4987881;28;20054;-79
2022/04/28 13:18:46;;;;;;;4.05;2.13;;;19.90;50.90;;;;;;4990215;28;20054;-79
2022/04/28 13:21:15;;;;;;;3.70;1.83;;;19.80;52.10;;;;;;4982589;28;20051;-78
2022/04/28 13:23:47;;;;;;;3.88;2.10;;;19.80;50.90;;;;;;4990719;28;20054;-78
2022/04/28 13:26:17;;;;;;;3.55;2.00;;;20.30;51.10;;;;;;4979720;28;20203;-80
2022/04/28 13:28:44;;;;;;;4.47;2.20;;;20.60;49.60;;;;;;4980898;28;20065;-80
2022/04/28 13:31:12;;;;;;;4.85;2.08;;;20.40;49.90;;;;;;4978315;28;20127;-79
2022/04/28 13:33:40;;;;;;;6.05;2.70;;;20.10;49.40;;;;;;4985066;28;20491;-80
2022/04/28 13:36:09;;;;;;;4.00;2.28;;;20.40;49.00;;;;;;4976304;28;20082;-79
2022/04/28 13:38:37;;;;;;;3.08;1.73;;;20.20;49.40;;;;;;4978431;28;20054;-79
2022/04/28 13:41:05;;;;;;;5.30;1.90;;;20.10;49.40;;;;;;4975856;28;20075;-79
2022/04/28 13:43:33;;;;;;;3.50;1.90;;;20.60;51.10;;;;;;4980415;28;20046;-79
2022/04/28 13:46:02;;;;;;;4.15;2.00;;;20.60;49.90;;;;;;4980175;28;20423;-80
2022/04/28 13:48:29;;;;;;;3.60;1.92;;;20.70;50.10;;;;;;4973968;28;20043;-82
2022/04/28 13:50:57;;;;;;;3.60;2.00;;;21.70;48.70;;;;;;4972610;28;20474;-82
2022/04/28 13:53:27;;;;;;;4.40;2.22;;;21.70;48.60;;;;;;4976282;28;20538;-79
2022/04/28 13:55:56;;;;;;;5.78;2.50;;;22.00;47.90;;;;;;4985323;28;20050;-79
2022/04/28 13:58:24;;;;;;;4.28;2.50;;;22.30;45.60;;;;;;4995257;28;20050;-78
2022/04/28 14:00:53;;;;;;;4.82;2.22;;;22.70;45.10;;;;;;4995331;28;20105;-80
2022/04/28 14:03:22;;;;;;;5.13;2.10;;;22.80;45.80;;;;;;4996038;28;20133;-79
2022/04/28 14:05:51;;;;;;;3.95;2.35;;;23.60;45.40;;;;;;4996431;28;20053;-80
2022/04/28 14:08:21;;;;;;;4.85;2.28;;;23.40;44.00;;;;;;4996132;28;20051;-80
2022/04/28 14:10:56;;;;;;;4.55;2.40;;;23.10;43.00;;;;;;4996805;28;20093;-78
2022/04/28 14:13:23;;;;;;;4.60;2.45;;;23.20;43.80;;;;;;4996953;28;20104;-79
2022/04/28 14:15:50;;;;;;;3.90;2.20;;;23.60;45.30;;;;;;4996106;28;20042;-79
2022/04/28 14:18:18;;;;;;;4.10;2.20;;;24.10;43.90;;;;;;4996308;28;20114;-80
2022/04/28 14:20:45;;;;;;;3.00;1.92;;;23.70;44.20;;;;;;4996259;28;20055;-79
2022/04/28 14:23:12;;;;;;;4.35;2.20;;;23.40;45.70;;;;;;4995459;28;20495;-79
2022/04/28 14:25:41;;;;;;;4.05;2.00;;;23.50;46.80;;;;;;4995244;28;20046;-79
2022/04/28 14:28:10;;;;;;;3.20;1.80;;;23.60;45.60;;;;;;4976269;28;20047;-79
2022/04/28 14:30:37;;;;;;;7.32;3.92;;;24.00;46.20;;;;;;4975892;28;20503;-79
2022/04/28 14:33:05;;;;;;;3.65;2.28;;;23.80;44.50;;;;;;4984789;28;20484;-79
2022/04/28 14:35:34;;;;;;;3.88;2.40;;;23.70;45.40;;;;;;4983468;28;20142;-81
2022/04/28 14:38:01;;;;;;;5.82;3.08;;;24.50;44.30;;;;;;4982279;28;20082;-79
2022/04/28 14:40:28;;;;;;;4.28;2.60;;;25.10;40.80;;;;;;4984857;28;20055;-79
2022/04/28 14:42:57;;;;;;;3.60;2.17;;;24.90;42.20;;;;;;4975885;28;20377;-81
2022/04/28 14:45:26;;;;;;;4.47;2.13;;;25.70;42.80;;;;;;4974885;28;20059;-79
2022/04/28 14:47:53;;;;;;;4.07;2.15;;;25.40;41.70;;;;;;4975100;28;20047;-79
2022/04/28 14:53:05;;;;;;;3.50;1.88;;;25.40;42.20;;;;;;4974956;28;20411;-78
2022/04/28 14:55:33;;;;;;;3.40;2.20;;;26.20;42.70;;;;;;4974615;28;20503;-79
2022/04/28 14:58:06;;;;;;;4.00;2.17;;;26.50;41.20;;;;;;4974677;28;20051;-78
2022/04/28 15:00:36;;;;;;;3.63;2.10;;;26.00;41.90;;;;;;4974746;28;20472;-78
2022/04/28 15:03:03;;;;;;;3.40;2.00;;;25.20;42.20;;;;;;4974460;28;20415;-80
2022/04/28 15:05:31;;;;;;;4.20;2.00;;;26.30;40.90;;;;;;4974433;28;20050;-79
2022/04/28 15:07:58;;;;;;;4.57;2.10;;;26.20;40.90;;;;;;4974287;28;20101;-78
2022/04/28 15:10:25;;;;;;;4.43;2.30;;;26.60;40.70;;;;;;4974343;28;20488;-78
2022/04/28 15:12:53;;;;;;;2.97;1.90;;;26.40;40.30;;;;;;4981911;28;20507;-76
2022/04/28 15:15:21;;;;;;;3.63;2.20;;;26.70;40.60;;;;;;4975144;28;20093;-79
2022/04/28 15:17:51;;;;;;;3.65;2.05;;;26.70;39.00;;;;;;4982787;28;20051;-77
2022/04/28 15:20:20;;;;;;;3.00;1.70;;;27.30;40.60;;;;;;4972529;28;20074;-81
2022/04/28 15:22:47;;;;;;;3.10;1.75;;;27.00;38.80;;;;;;4984101;28;20078;-87
2022/04/28 15:25:15;;;;;;;4.05;2.00;;;27.00;38.40;;;;;;4982674;28;20149;-80
2022/04/28 15:27:43;;;;;;;3.78;2.00;;;25.80;39.80;;;;;;4971845;28;20137;-79
2022/04/28 15:30:12;;;;;;;4.18;2.35;;;25.40;39.80;;;;;;4976899;28;20054;-79
2022/04/28 15:32:40;;;;;;;3.53;2.10;;;25.20;38.60;;;;;;4970481;28;20054;-80
2022/04/28 15:35:10;;;;;;;3.47;1.90;;;25.10;40.40;;;;;;4977784;28;20054;-81
2022/04/28 15:37:38;;;;;;;3.40;1.92;;;25.20;40.70;;;;;;4980613;28;20115;-82
2022/04/28 15:40:10;;;;;;;4.75;2.08;;;25.80;39.90;;;;;;4985984;28;20056;-81
2022/04/28 15:42:38;;;;;;;3.47;1.80;;;25.60;39.40;;;;;;4979047;28;20047;-82
2022/04/28 15:45:07;;;;;;;3.00;1.80;;;26.40;38.80;;;;;;4976851;28;20057;-80
2022/04/28 15:47:34;;;;;;;3.05;1.77;;;26.10;39.70;;;;;;4972205;28;20507;-80
2022/04/28 15:50:02;;;;;;;4.55;2.00;;;26.50;39.90;;;;;;4972871;28;20051;-81
2022/04/28 15:52:30;;;;;;;3.47;2.10;;;26.10;40.20;;;;;;4972602;28;20137;-81
2022/04/28 15:54:57;;;;;;;4.40;1.92;;;25.60;39.60;;;;;;4981159;28;20061;-79
2022/04/28 15:57:24;;;;;;;4.20;1.98;;;25.00;40.20;;;;;;4982256;28;20670;-84
2022/04/28 15:59:52;;;;;;;3.47;2.08;;;24.80;39.90;;;;;;4974613;28;20050;-83
2022/04/28 16:02:22;;;;;;;3.60;1.90;;;24.30;40.50;;;;;;4975390;28;20058;-82
2022/04/28 16:04:50;;;;;;;4.43;2.08;;;24.60;41.00;;;;;;4981732;28;20560;-82
2022/04/28 16:07:17;;;;;;;3.45;1.90;;;24.40;39.80;;;;;;4972218;28;20520;-83
2022/04/28 16:09:49;;;;;;;4.22;1.90;;;24.80;40.10;;;;;;4988145;28;20155;-82
2022/04/28 16:12:16;;;;;;;4.00;1.88;;;24.80;40.50;;;;;;4978241;28;20303;-82
2022/04/28 16:14:43;;;;;;;4.45;1.70;;;24.60;41.10;;;;;;4982479;28;20054;-81
2022/04/28 16:17:11;;;;;;;4.95;2.20;;;24.70;40.40;;;;;;4983723;28;20483;-85
2022/04/28 16:19:38;;;;;;;4.00;2.10;;;24.80;39.30;;;;;;4985746;28;20088;-81
2022/04/28 16:22:05;;;;;;;3.97;2.25;;;25.50;39.70;;;;;;4981787;28;20133;-84
2022/04/28 16:24:35;;;;;;;3.90;1.90;;;25.60;39.60;;;;;;4982128;28;20697;-84
2022/04/28 16:27:04;;;;;;;4.88;2.08;;;25.20;40.50;;;;;;4986427;28;20505;-83
2022/04/28 16:29:34;;;;;;;4.88;2.20;;;24.80;40.50;;;;;;4978460;28;20403;-85
2022/04/28 16:32:01;;;;;;;3.55;1.80;;;24.80;39.80;;;;;;4950318;28;20054;-84
2022/04/28 16:34:28;;;;;;;3.78;2.00;;;25.00;40.90;;;;;;4973347;28;20130;-84
2022/04/28 16:36:56;;;;;;;4.15;1.83;;;24.90;40.40;;;;;;4985083;28;20137;-83
2022/04/28 16:39:24;;;;;;;3.33;2.05;;;24.90;41.40;;;;;;4982273;28;20130;-83
2022/04/28 16:41:52;;;;;;;5.13;2.20;;;25.10;40.80;;;;;;4990794;28;20050;-83
2022/04/28 16:44:21;;;;;;;3.45;2.10;;;25.00;40.70;;;;;;4989385;28;20046;-84
2022/04/28 16:46:50;;;;;;;3.20;1.90;;;24.50;40.90;;;;;;4991543;28;20061;-84
2022/04/28 16:49:17;;;;;;;3.67;1.77;;;24.30;40.90;;;;;;4992091;28;20062;-84
2022/04/28 16:51:46;;;;;;;3.65;1.92;;;24.00;43.00;;;;;;4965563;28;20132;-85
2022/04/28 16:54:14;;;;;;;3.60;2.20;;;24.30;42.50;;;;;;4984007;28;20510;-83
2022/04/28 16:56:41;;;;;;;4.30;2.10;;;24.40;42.40;;;;;;4982226;28;20515;-85
2022/04/28 16:59:09;;;;;;;4.00;2.00;;;24.10;39.90;;;;;;4982391;28;20456;-83
2022/04/28 17:01:37;;;;;;;3.65;1.92;;;24.40;41.60;;;;;;4979909;28;20050;-82
2022/04/28 17:04:18;;;;;;;3.58;2.05;;;24.10;40.80;;;;;;4976873;28;20443;-81
2022/04/28 17:06:47;;;;;;;3.45;1.77;;;24.30;41.70;;;;;;4987308;28;20492;-82
2022/04/28 17:09:16;;;;;;;3.88;2.00;;;23.70;41.80;;;;;;4988272;28;20061;-82
2022/04/28 17:11:44;;;;;;;4.95;2.58;;;23.70;43.20;;;;;;4982100;28;20058;-83
2022/04/28 17:14:13;;;;;;;3.95;2.25;;;23.50;43.20;;;;;;4982981;28;20050;-79
2022/04/28 17:16:48;;;;;;;3.17;1.83;;;23.20;43.80;;;;;;4981868;28;20531;-80
2022/04/28 17:19:16;;;;;;;5.13;2.55;;;23.10;43.40;;;;;;4973384;28;20488;-79
2022/04/28 17:21:45;;;;;;;4.03;1.73;;;22.90;44.50;;;;;;4976935;28;20054;-81
2022/04/28 17:24:14;;;;;;;3.25;1.90;;;22.70;44.90;;;;;;4980094;28;20047;-81
2022/04/28 17:26:45;;;;;;;3.35;1.90;;;23.00;44.30;;;;;;4977153;28;20566;-82
2022/04/28 17:29:14;;;;;;;3.88;1.85;;;22.90;44.50;;;;;;4985969;28;20492;-77
2022/04/28 17:31:42;;;;;;;3.63;2.00;;;23.00;45.00;;;;;;4973529;28;20061;-74
2022/04/28 17:34:10;;;;;;;3.25;1.80;;;22.90;46.80;;;;;;4971623;28;20046;-76
2022/04/28 17:36:40;;;;;;;3.35;1.77;;;23.00;46.50;;;;;;4978729;28;20047;-78
2022/04/28 17:39:08;;;;;;;3.97;1.90;;;22.80;44.80;;;;;;4975221;28;20067;-75
2022/04/28 17:41:35;;;;;;;3.35;1.80;;;22.80;45.40;;;;;;4981038;28;20057;-76
2022/04/28 17:44:05;;;;;;;3.47;1.92;;;22.30;45.00;;;;;;4980140;28;20051;-79
2022/04/28 17:46:32;;;;;;;3.35;2.00;;;22.30;46.40;;;;;;4974225;28;20134;-76
2022/04/28 17:49:01;;;;;;;3.63;1.80;;;22.00;46.50;;;;;;4972389;28;20135;-74
2022/04/28 17:51:28;;;;;;;3.10;1.60;;;21.60;46.10;;;;;;4973612;28;20053;-76
2022/04/28 17:53:55;;;;;;;3.15;1.80;;;21.10;47.00;;;;;;4978319;28;20057;-75
2022/04/28 18:01:51;;;;;;;3.65;1.80;;;21.40;48.50;;;;;;4981420;28;20607;-78
2022/04/28 18:04:20;;;;;;;3.47;1.90;;;21.20;48.10;;;;;;4980413;28;20061;-74
2022/04/28 18:06:47;;;;;;;3.20;1.80;;;20.80;48.60;;;;;;4978397;28;20043;-75
2022/04/28 18:09:14;;;;;;;3.40;1.88;;;20.60;48.60;;;;;;4972156;28;20051;-77
2022/04/28 18:11:41;;;;;;;3.90;2.00;;;20.80;50.50;;;;;;4975461;28;20058;-77
2022/04/28 18:14:08;;;;;;;3.92;1.90;;;20.40;49.50;;;;;;4972343;28;20105;-76
2022/04/28 18:16:37;;;;;;;5.30;2.25;;;20.20;50.00;;;;;;4984488;28;20080;-75
2022/04/28 18:19:06;;;;;;;3.50;1.80;;;20.10;50.70;;;;;;4972121;28;20065;-75
2022/04/28 18:21:35;;;;;;;3.92;1.83;;;20.10;51.90;;;;;;4979048;28;20136;-77
2022/04/28 18:24:03;;;;;;;3.95;1.70;;;20.00;52.20;;;;;;4972589;28;20050;-77
2022/04/28 18:26:31;;;;;;;4.32;1.90;;;19.80;52.10;;;;;;4973193;28;20057;-76